Hauptseite
METAR-TAF:

METAR-TAF

Flughäfen :

Fliegerhorst Lechfeld

Lechfeld, Deutschland

Breite: 48-11N, Länge: 010-52E, Höhe: 555 m

Beobachtung

Neuester Wetterbericht von vor 1 Stunde und 41 Minuten, um 23:20 UTC
Wind 5 kt aus Süd/Südwest
Temperatur 0°C
Luftfeuchtigkeit 69%
Luftdruck 1011 hPa
Sichtweite 10 km oder mehr

METAR: ETSL 022320Z AUTO 20005KT 9999 // ////// M00/M05 Q1011 ///

Zeit: 03:01 (01:01 UTC)

Prognose

Neuester Wetterbericht von vor 6 Stunden und 18 Minuten, um 18:43 UTC
Gültige Prognose vom 02 um 18 UTC bis 03 um 02 UTC
Wind 8 kt aus West
Sichtweite: 1845 m
Leicht bewölkt in der Höhe von 7000 ft

TAF: ETSL 021843Z 0218/0302 26008KT 9999 NSW FEW070 CANCEL 1845 BY ETGL

Wetterbeobachtungen und Prognosen von mehr als 4000 Flughäfen (METAR und TAF Bericht).

Die verfügbaren Stationen werden durch gelbe und rote Markierungen auf der Karte dargestellt.

Führen Sie die Maus auf sie, um den Namen der Station zu sehen.

Darauf klicken, um die Beobachtung von Wetterbeobachtungen und Prognosen zu sehen.

Um die Karte zu ändern : klicken Sie auf den grünen Tasten mit einem schwarzen Kreuz Zum Vergrößern, auf den grünen Button mit einem Gedankenstrich zu verkleinern, oder auf die grünen Pfeile für benachbarte Karten.


METAR-TAF: